createdAt,value
2023-09-03T00:00:30.614Z,6.00
2023-09-03T00:02:57.275Z,6.20
2023-09-03T00:05:23.854Z,5.60
2023-09-03T00:07:50.978Z,5.90
2023-09-03T00:10:17.622Z,5.40
2023-09-03T00:12:44.133Z,5.60
2023-09-03T00:15:10.647Z,6.80
2023-09-03T00:17:37.254Z,5.50
2023-09-03T00:20:04.079Z,6.70
2023-09-03T00:22:30.933Z,6.80
2023-09-03T00:24:57.331Z,7.10
2023-09-03T00:27:23.736Z,7.30
2023-09-03T00:29:50.402Z,6.90
2023-09-03T00:32:16.958Z,8.00
2023-09-03T00:34:43.429Z,6.60
2023-09-03T00:37:09.881Z,8.50
2023-09-03T00:39:36.744Z,6.90
2023-09-03T00:42:03.554Z,9.50
2023-09-03T00:44:30.201Z,12.40
2023-09-03T00:46:56.879Z,7.70
2023-09-03T00:49:23.931Z,7.60
2023-09-03T00:51:51.470Z,7.30
2023-09-03T00:54:17.878Z,8.40
2023-09-03T00:56:45.099Z,7.40
2023-09-03T00:59:11.582Z,7.10
2023-09-03T01:01:39.215Z,8.10
2023-09-03T01:04:05.962Z,7.50
2023-09-03T01:06:32.541Z,6.50
2023-09-03T01:08:58.985Z,7.20
2023-09-03T01:12:23.767Z,6.80
2023-09-03T01:14:50.721Z,8.60
2023-09-03T01:17:46.708Z,7.00
2023-09-03T01:20:18.732Z,8.10
2023-09-03T01:22:45.140Z,6.90
2023-09-03T01:25:17.596Z,6.30
2023-09-03T01:27:52.044Z,6.50
2023-09-03T01:30:19.163Z,8.50
2023-09-03T01:32:46.938Z,8.00
2023-09-03T01:35:13.372Z,6.90
2023-09-03T01:37:40.006Z,7.30
2023-09-03T01:40:07.258Z,8.70
2023-09-03T01:42:33.763Z,7.80
2023-09-03T01:45:00.905Z,7.70
2023-09-03T01:47:46.163Z,7.50
2023-09-03T01:50:27.952Z,7.80
2023-09-03T01:53:14.689Z,7.50
2023-09-03T01:55:42.588Z,8.90
2023-09-03T01:58:10.676Z,10.00
2023-09-03T02:00:37.794Z,9.70
2023-09-03T02:03:04.524Z,7.80
2023-09-03T02:05:31.132Z,7.30
2023-09-03T02:07:57.628Z,7.20
2023-09-03T02:10:24.077Z,7.70
2023-09-03T02:12:50.668Z,8.60
2023-09-03T02:15:17.128Z,8.80
2023-09-03T02:17:43.822Z,10.90
2023-09-03T02:20:10.877Z,11.70
2023-09-03T02:22:37.454Z,12.00
2023-09-03T02:25:04.241Z,8.60
2023-09-03T02:27:30.893Z,9.30
2023-09-03T02:29:57.489Z,7.80
2023-09-03T02:32:26.031Z,9.20
2023-09-03T02:34:52.653Z,8.10
2023-09-03T02:37:19.325Z,7.40
2023-09-03T02:39:45.947Z,7.30
2023-09-03T02:42:12.415Z,10.10
2023-09-03T02:44:39.023Z,8.50
2023-09-03T02:47:05.569Z,7.80
2023-09-03T02:49:32.162Z,7.60
2023-09-03T02:51:58.812Z,8.50
2023-09-03T02:54:25.546Z,9.70
2023-09-03T02:56:52.124Z,11.50
2023-09-03T02:59:18.747Z,10.30
2023-09-03T03:01:45.551Z,10.90
2023-09-03T03:04:12.564Z,10.10
2023-09-03T03:06:39.078Z,10.30
2023-09-03T03:09:05.793Z,11.00
2023-09-03T03:11:33.264Z,11.00
2023-09-03T03:14:00.830Z,9.90
2023-09-03T03:16:31.267Z,9.70
2023-09-03T03:18:58.069Z,8.90
2023-09-03T03:21:27.722Z,9.50
2023-09-03T03:24:00.662Z,9.10
2023-09-03T03:26:31.831Z,13.70
2023-09-03T03:28:58.472Z,9.90
2023-09-03T03:31:25.565Z,8.30
2023-09-03T03:33:53.064Z,8.50
2023-09-03T03:36:22.104Z,9.80
2023-09-03T03:38:48.876Z,9.20
2023-09-03T03:41:18.158Z,8.30
2023-09-03T03:43:46.145Z,9.40
2023-09-03T03:46:15.009Z,9.20
2023-09-03T03:48:42.124Z,10.60
2023-09-03T03:51:08.843Z,10.30
2023-09-03T03:53:36.059Z,10.10
2023-09-03T03:56:07.758Z,9.20
2023-09-03T03:58:39.227Z,9.50
2023-09-03T04:01:12.261Z,10.30
2023-09-03T04:03:38.980Z,9.50
2023-09-03T04:06:05.460Z,9.40
2023-09-03T04:08:32.855Z,8.80
2023-09-03T04:11:03.725Z,8.60
2023-09-03T04:13:30.217Z,7.90
2023-09-03T04:15:57.640Z,8.70
2023-09-03T04:18:24.871Z,8.20
2023-09-03T04:20:56.357Z,8.00
2023-09-03T04:23:24.550Z,8.60
2023-09-03T04:25:54.918Z,10.10
2023-09-03T04:28:21.736Z,6.60
2023-09-03T04:30:56.357Z,6.70
2023-09-03T04:33:23.558Z,6.40
2023-09-03T04:36:01.297Z,5.40
2023-09-03T04:38:30.274Z,7.00
2023-09-03T04:40:57.201Z,5.00
2023-09-03T04:43:25.334Z,6.20
2023-09-03T04:45:53.144Z,6.40
2023-09-03T04:48:21.638Z,6.80
2023-09-03T04:50:48.663Z,5.80
2023-09-03T04:53:15.624Z,6.80
2023-09-03T04:55:43.987Z,6.50
2023-09-03T04:58:11.093Z,7.70
2023-09-03T05:00:37.826Z,7.30
2023-09-03T05:03:07.106Z,7.40
2023-09-03T05:05:42.715Z,7.60
2023-09-03T05:08:10.441Z,8.10
2023-09-03T05:10:39.027Z,7.50
2023-09-03T05:13:06.019Z,6.80
2023-09-03T05:15:34.599Z,7.90
2023-09-03T05:18:02.097Z,7.90
2023-09-03T05:20:29.972Z,7.80
2023-09-03T05:22:56.597Z,7.30
2023-09-03T05:25:23.336Z,6.80
2023-09-03T05:27:50.048Z,7.20
2023-09-03T05:30:16.776Z,6.50
2023-09-03T05:32:43.462Z,5.40
2023-09-03T05:35:10.424Z,5.90
2023-09-03T05:37:37.182Z,5.90
2023-09-03T05:40:05.198Z,7.20
2023-09-03T05:42:32.700Z,7.10
2023-09-03T05:44:59.770Z,6.40
2023-09-03T05:47:26.939Z,6.70
2023-09-03T05:49:57.764Z,5.90
2023-09-03T05:52:25.209Z,6.10
2023-09-03T05:54:51.956Z,7.20
2023-09-03T05:57:19.035Z,7.70
2023-09-03T05:59:50.567Z,6.70
2023-09-03T06:02:18.717Z,6.80
2023-09-03T06:04:45.887Z,6.70
2023-09-03T06:07:12.742Z,6.50
2023-09-03T06:09:39.729Z,7.20
2023-09-03T06:12:06.478Z,6.80
2023-09-03T06:14:33.120Z,6.60
2023-09-03T06:17:00.534Z,6.20
2023-09-03T06:19:27.055Z,7.20
2023-09-03T06:21:53.664Z,7.20
2023-09-03T06:24:20.145Z,7.70
2023-09-03T06:26:46.839Z,9.40
2023-09-03T06:29:13.440Z,9.00
2023-09-03T06:31:40.028Z,9.90
2023-09-03T06:34:06.531Z,9.30
2023-09-03T06:36:33.176Z,8.90
2023-09-03T06:38:59.901Z,9.90
2023-09-03T06:41:27.091Z,9.80
2023-09-03T06:43:53.708Z,8.70
2023-09-03T06:46:20.413Z,8.50
2023-09-03T06:48:46.937Z,7.60
2023-09-03T06:51:13.610Z,7.30
2023-09-03T06:53:40.216Z,7.10
2023-09-03T06:56:06.978Z,8.50
2023-09-03T06:58:33.634Z,7.70
2023-09-03T07:01:02.646Z,6.90
2023-09-03T07:03:29.534Z,7.40
2023-09-03T07:05:56.149Z,8.00
2023-09-03T07:08:22.984Z,7.60
2023-09-03T07:10:49.808Z,8.20
2023-09-03T07:13:16.436Z,8.50
2023-09-03T07:15:44.476Z,7.80
2023-09-03T07:18:11.261Z,8.50
2023-09-03T07:20:37.867Z,7.40
2023-09-03T07:23:04.608Z,9.00
2023-09-03T07:25:32.084Z,9.20
2023-09-03T07:27:58.628Z,9.50
2023-09-03T07:30:25.451Z,9.60
2023-09-03T07:32:52.097Z,8.70
2023-09-03T07:35:19.123Z,8.70
2023-09-03T07:37:46.863Z,8.70
2023-09-03T07:40:13.471Z,10.30
2023-09-03T07:42:40.357Z,8.40
2023-09-03T07:45:07.782Z,7.10
2023-09-03T07:47:34.402Z,6.80
2023-09-03T07:50:01.745Z,5.60
2023-09-03T07:52:28.676Z,5.70
2023-09-03T07:54:55.204Z,6.50
2023-09-03T07:57:21.727Z,7.00
2023-09-03T07:59:48.213Z,4.90
2023-09-03T08:02:14.797Z,5.10
2023-09-03T08:04:42.772Z,5.40
2023-09-03T08:07:09.534Z,4.80
2023-09-03T08:09:36.536Z,4.60
2023-09-03T08:12:03.115Z,6.10
2023-09-03T08:14:30.255Z,4.50
2023-09-03T08:16:57.027Z,4.50
2023-09-03T08:19:23.464Z,4.80
2023-09-03T08:21:50.116Z,4.70
2023-09-03T08:24:16.892Z,4.40
2023-09-03T08:26:43.399Z,4.50
2023-09-03T08:29:10.156Z,5.30
2023-09-03T08:31:36.851Z,4.10
2023-09-03T08:34:03.661Z,4.80
2023-09-03T08:36:30.491Z,4.60
2023-09-03T08:38:57.421Z,4.20
2023-09-03T08:41:24.222Z,4.10
2023-09-03T08:43:53.997Z,5.80
2023-09-03T08:46:20.832Z,4.90
2023-09-03T08:48:50.574Z,7.30
2023-09-03T08:51:18.018Z,6.00
2023-09-03T08:53:44.989Z,7.10
2023-09-03T08:56:11.740Z,5.40
2023-09-03T08:58:38.897Z,8.30
2023-09-03T09:01:06.610Z,7.10
2023-09-03T09:03:33.315Z,10.00
2023-09-03T09:05:59.916Z,5.80
2023-09-03T09:08:26.466Z,6.80
2023-09-03T09:10:52.968Z,5.70
2023-09-03T09:13:22.996Z,5.60
2023-09-03T09:15:49.693Z,6.30
2023-09-03T09:18:16.292Z,4.60
2023-09-03T09:20:42.787Z,4.10
2023-09-03T09:23:09.484Z,4.10
2023-09-03T09:25:36.243Z,4.10
2023-09-03T09:28:12.768Z,4.90
2023-09-03T09:30:56.262Z,5.80
2023-09-03T09:33:23.724Z,4.60
2023-09-03T09:35:50.650Z,3.90
2023-09-03T09:38:17.771Z,4.70
2023-09-03T09:40:44.470Z,2.90
2023-09-03T09:43:11.032Z,3.20
2023-09-03T09:45:51.141Z,3.20
2023-09-03T09:48:17.711Z,4.50
2023-09-03T09:50:45.894Z,3.90
2023-09-03T09:53:27.920Z,3.20
2023-09-03T09:56:01.452Z,3.90
2023-09-03T09:58:37.901Z,4.40
2023-09-03T10:01:05.217Z,3.10
2023-09-03T10:03:45.606Z,2.70
2023-09-03T10:06:15.875Z,5.80
2023-09-03T10:08:43.230Z,2.30
2023-09-03T10:11:09.810Z,2.00
2023-09-03T10:13:39.499Z,3.80
2023-09-03T10:16:09.886Z,4.90
2023-09-03T10:18:46.772Z,2.70
2023-09-03T10:21:14.702Z,2.80
2023-09-03T10:23:47.622Z,3.00
2023-09-03T10:26:14.394Z,5.00
2023-09-03T10:28:42.298Z,3.30
2023-09-03T10:31:08.873Z,3.50
2023-09-03T10:33:35.735Z,3.50
2023-09-03T10:36:18.538Z,4.30
2023-09-03T10:38:45.306Z,6.90
2023-09-03T10:41:20.799Z,6.00
2023-09-03T10:43:58.452Z,5.20
2023-09-03T10:46:26.133Z,3.60
2023-09-03T10:48:54.403Z,5.30
2023-09-03T10:51:40.613Z,4.20
2023-09-03T10:54:25.395Z,3.50
2023-09-03T10:57:07.721Z,3.80
2023-09-03T10:59:59.035Z,3.80
2023-09-03T11:02:29.151Z,3.50
2023-09-03T11:05:13.763Z,4.80
2023-09-03T11:07:44.311Z,3.50
2023-09-03T11:10:28.219Z,4.50
2023-09-03T11:12:54.978Z,3.60
2023-09-03T11:15:21.698Z,2.80
2023-09-03T11:17:55.365Z,3.10
2023-09-03T11:20:49.333Z,2.40
2023-09-03T11:23:17.999Z,3.10
2023-09-03T11:25:44.974Z,5.80
2023-09-03T11:28:14.708Z,4.50
2023-09-03T11:30:45.137Z,3.40
2023-09-03T11:33:24.245Z,3.30
2023-09-03T11:35:50.902Z,4.20
2023-09-03T11:38:17.431Z,3.40
2023-09-03T11:40:43.903Z,3.90
2023-09-03T11:43:10.716Z,5.20
2023-09-03T11:45:37.367Z,5.30
2023-09-03T11:48:07.044Z,3.20
2023-09-03T11:50:35.215Z,4.90
2023-09-03T11:53:05.270Z,3.20
2023-09-03T11:55:42.501Z,3.40
2023-09-03T11:58:10.283Z,4.60
2023-09-03T12:00:36.881Z,4.40
2023-09-03T12:03:04.107Z,4.50
2023-09-03T12:05:32.745Z,3.50
2023-09-03T12:08:03.451Z,4.20
2023-09-03T12:10:31.821Z,3.30
2023-09-03T12:13:00.069Z,5.50
2023-09-03T12:15:26.872Z,3.60
2023-09-03T12:17:53.501Z,4.50
2023-09-03T12:20:33.048Z,3.30
2023-09-03T12:23:09.899Z,3.70
2023-09-03T12:25:36.580Z,6.30
2023-09-03T12:28:04.775Z,4.30
2023-09-03T12:30:56.872Z,3.20
2023-09-03T12:33:47.720Z,4.00
2023-09-03T12:36:18.655Z,5.50
2023-09-03T12:38:52.616Z,4.20
2023-09-03T12:41:20.174Z,4.40
2023-09-03T12:43:47.044Z,3.30
2023-09-03T12:46:13.660Z,4.10
2023-09-03T12:48:45.023Z,3.50
2023-09-03T12:51:12.756Z,3.40
2023-09-03T12:53:40.568Z,3.80
2023-09-03T12:56:07.152Z,3.30
2023-09-03T12:58:33.816Z,4.20
2023-09-03T13:01:00.832Z,3.20
2023-09-03T13:03:28.551Z,5.30
2023-09-03T13:05:56.207Z,3.10
2023-09-03T13:08:23.148Z,3.10
2023-09-03T13:10:50.645Z,5.50
2023-09-03T13:13:17.686Z,3.70
2023-09-03T13:15:45.190Z,4.70
2023-09-03T13:18:12.219Z,4.10
2023-09-03T13:20:38.666Z,3.70
2023-09-03T13:23:05.199Z,5.10
2023-09-03T13:25:34.901Z,5.20
2023-09-03T13:28:02.061Z,4.30
2023-09-03T13:30:29.100Z,4.50
2023-09-03T13:32:56.370Z,4.70
2023-09-03T13:35:22.922Z,3.10
2023-09-03T13:37:49.473Z,2.70
2023-09-03T13:40:16.316Z,3.10
2023-09-03T13:42:43.734Z,1.80
2023-09-03T13:45:10.762Z,1.90
2023-09-03T13:47:37.394Z,1.70
2023-09-03T13:50:06.305Z,2.10
2023-09-03T13:52:33.716Z,2.30
2023-09-03T13:55:00.434Z,2.20
2023-09-03T13:57:26.958Z,2.60
2023-09-03T13:59:54.915Z,2.90
2023-09-03T14:02:23.591Z,1.80
2023-09-03T14:04:50.357Z,2.70
2023-09-03T14:07:16.780Z,1.40
2023-09-03T14:09:43.346Z,2.60
2023-09-03T14:12:09.962Z,1.60
2023-09-03T14:14:36.448Z,2.40
2023-09-03T14:17:03.205Z,2.00
2023-09-03T14:19:29.928Z,1.40
2023-09-03T14:21:56.405Z,2.30
2023-09-03T14:24:23.010Z,1.60
2023-09-03T14:26:49.550Z,3.50
2023-09-03T14:29:16.931Z,1.80
2023-09-03T14:31:51.157Z,2.70
2023-09-03T14:34:17.712Z,2.10
2023-09-03T14:36:45.213Z,1.50
2023-09-03T14:39:12.016Z,2.50
2023-09-03T14:41:39.007Z,1.60
2023-09-03T14:44:05.644Z,3.80
2023-09-03T14:46:32.330Z,3.10
2023-09-03T14:48:58.825Z,2.30
2023-09-03T14:51:25.625Z,1.80
2023-09-03T14:53:52.448Z,1.80
2023-09-03T14:56:20.494Z,1.80
2023-09-03T14:58:47.438Z,2.30
2023-09-03T15:01:14.693Z,2.10
2023-09-03T15:03:41.286Z,1.70
2023-09-03T15:06:07.946Z,1.70
2023-09-03T15:08:35.049Z,1.70
2023-09-03T15:11:15.549Z,1.80
2023-09-03T15:13:42.923Z,2.80
2023-09-03T15:16:09.998Z,2.20
2023-09-03T15:18:37.304Z,3.10
2023-09-03T15:21:04.556Z,2.80
2023-09-03T15:23:31.396Z,2.00
2023-09-03T15:25:58.232Z,2.10
2023-09-03T15:28:25.177Z,4.40
2023-09-03T15:30:51.944Z,2.20
2023-09-03T15:33:19.157Z,1.70
2023-09-03T15:35:46.019Z,3.00
2023-09-03T15:38:13.181Z,1.90
2023-09-03T15:40:40.517Z,2.40
2023-09-03T15:43:07.184Z,2.60
2023-09-03T15:45:34.642Z,5.40
2023-09-03T15:48:01.952Z,2.80
2023-09-03T15:50:29.464Z,7.00
2023-09-03T15:52:55.970Z,3.80
2023-09-03T15:55:22.779Z,2.20
2023-09-03T15:57:49.419Z,2.70
2023-09-03T16:00:15.965Z,2.10
2023-09-03T16:02:43.394Z,4.90
2023-09-03T16:05:10.277Z,3.10
2023-09-03T16:07:37.200Z,4.90
2023-09-03T16:10:04.612Z,2.90
2023-09-03T16:12:31.227Z,3.60
2023-09-03T16:14:58.701Z,2.80
2023-09-03T16:17:25.149Z,3.60
2023-09-03T16:19:51.791Z,2.60
2023-09-03T16:22:18.265Z,5.10
2023-09-03T16:24:45.195Z,4.00
2023-09-03T16:27:12.058Z,4.70
2023-09-03T16:29:38.647Z,2.40
2023-09-03T16:32:05.549Z,4.10
2023-09-03T16:34:33.043Z,4.20
2023-09-03T16:36:59.916Z,5.30
2023-09-03T16:39:26.392Z,2.40
2023-09-03T16:41:53.021Z,2.70
2023-09-03T16:44:19.889Z,3.20
2023-09-03T16:46:46.350Z,2.90
2023-09-03T16:49:13.404Z,3.60
2023-09-03T16:51:40.786Z,2.90
2023-09-03T16:54:07.497Z,4.40
2023-09-03T16:56:34.569Z,6.30
2023-09-03T16:59:01.284Z,3.60
2023-09-03T17:01:28.105Z,3.50
2023-09-03T17:03:54.786Z,4.00
2023-09-03T17:06:21.637Z,4.60
2023-09-03T17:08:48.426Z,2.70
2023-09-03T17:11:15.128Z,2.30
2023-09-03T17:13:41.565Z,2.20
2023-09-03T17:16:13.589Z,4.00
2023-09-03T17:18:40.201Z,3.90
2023-09-03T17:21:06.761Z,5.60
2023-09-03T17:23:39.133Z,2.30
2023-09-03T17:26:15.777Z,2.50
2023-09-03T17:28:50.448Z,3.00
2023-09-03T17:31:17.111Z,3.50
2023-09-03T17:33:43.650Z,3.30
2023-09-03T17:36:10.082Z,4.10
2023-09-03T17:38:36.714Z,7.00
2023-09-03T17:41:03.198Z,2.80
2023-09-03T17:43:31.003Z,2.50
2023-09-03T17:45:57.538Z,4.20
2023-09-03T17:48:25.933Z,3.10
2023-09-03T17:50:52.769Z,3.00
2023-09-03T17:53:19.227Z,2.40
2023-09-03T17:55:45.740Z,3.20
2023-09-03T17:58:12.241Z,2.30
2023-09-03T18:00:40.445Z,2.00
2023-09-03T18:03:07.042Z,2.20
2023-09-03T18:05:33.816Z,2.40
2023-09-03T18:08:00.461Z,3.10
2023-09-03T18:10:30.730Z,2.00
2023-09-03T18:12:57.372Z,2.10
2023-09-03T18:15:23.889Z,2.60
2023-09-03T18:17:50.519Z,1.90
2023-09-03T18:20:17.427Z,2.20
2023-09-03T18:22:44.246Z,1.50
2023-09-03T18:25:11.078Z,2.80
2023-09-03T18:27:37.796Z,2.20
2023-09-03T18:30:07.294Z,3.20
2023-09-03T18:32:34.191Z,3.20
2023-09-03T18:35:01.145Z,2.90
2023-09-03T18:37:27.988Z,3.00
2023-09-03T18:39:54.991Z,2.30
2023-09-03T18:42:21.819Z,2.60
2023-09-03T18:44:48.504Z,2.40
2023-09-03T18:47:15.089Z,2.10
2023-09-03T18:49:41.756Z,2.90
2023-09-03T18:52:08.237Z,2.10
2023-09-03T18:54:34.817Z,3.00
2023-09-03T18:57:01.542Z,12.30
2023-09-03T18:59:28.325Z,2.30
2023-09-03T19:01:55.055Z,3.30
2023-09-03T19:04:23.413Z,2.50
2023-09-03T19:06:54.145Z,2.70
2023-09-03T19:09:20.906Z,2.30
2023-09-03T19:11:47.560Z,2.30
2023-09-03T19:14:15.135Z,3.20
2023-09-03T19:16:41.771Z,2.40
2023-09-03T19:19:08.510Z,3.20
2023-09-03T19:21:35.134Z,2.10
2023-09-03T19:24:05.104Z,1.90
2023-09-03T19:26:32.109Z,3.70
2023-09-03T19:29:00.621Z,2.80
2023-09-03T19:31:27.462Z,2.00
2023-09-03T19:33:54.091Z,2.20
2023-09-03T19:36:20.647Z,1.90
2023-09-03T19:38:47.384Z,2.10
2023-09-03T19:41:14.058Z,2.30
2023-09-03T19:43:40.591Z,2.50
2023-09-03T19:46:07.167Z,2.80
2023-09-03T19:48:36.312Z,2.90
2023-09-03T19:51:02.981Z,2.50
2023-09-03T19:53:30.774Z,1.90
2023-09-03T19:56:04.373Z,2.20
2023-09-03T19:58:32.671Z,2.70
2023-09-03T20:01:05.726Z,2.30
2023-09-03T20:03:33.253Z,2.30
2023-09-03T20:06:02.943Z,3.50
2023-09-03T20:08:32.786Z,4.30
2023-09-03T20:11:03.178Z,2.70
2023-09-03T20:13:29.803Z,4.60
2023-09-03T20:15:56.867Z,3.00
2023-09-03T20:18:23.684Z,3.30
2023-09-03T20:20:54.263Z,3.50
2023-09-03T20:23:21.037Z,2.90
2023-09-03T20:26:03.472Z,3.20
2023-09-03T20:28:43.352Z,4.90
2023-09-03T20:31:13.112Z,3.90
2023-09-03T20:33:39.830Z,2.60
2023-09-03T20:36:06.648Z,2.60
2023-09-03T20:38:33.315Z,2.90
2023-09-03T20:41:01.600Z,3.40
2023-09-03T20:43:28.449Z,2.90
2023-09-03T20:45:57.802Z,3.10
2023-09-03T20:48:24.622Z,2.50
2023-09-03T20:50:51.456Z,4.10
2023-09-03T20:53:18.110Z,3.90
2023-09-03T20:55:52.259Z,2.00
2023-09-03T20:58:19.124Z,3.30
2023-09-03T21:00:45.845Z,4.40
2023-09-03T21:03:12.479Z,2.70
2023-09-03T21:05:39.031Z,2.90
2023-09-03T21:08:05.772Z,4.60
2023-09-03T21:10:32.668Z,4.30
2023-09-03T21:12:59.191Z,4.50
2023-09-03T21:15:25.691Z,2.60
2023-09-03T21:17:52.285Z,4.00
2023-09-03T21:20:18.901Z,3.30
2023-09-03T21:22:45.376Z,6.10
2023-09-03T21:25:12.057Z,5.80
2023-09-03T21:27:38.963Z,3.50
2023-09-03T21:30:06.212Z,3.70
2023-09-03T21:32:34.612Z,4.10
2023-09-03T21:35:09.963Z,5.30
2023-09-03T21:37:44.974Z,3.80
2023-09-03T21:40:13.637Z,4.00
2023-09-03T21:42:40.344Z,4.70
2023-09-03T21:45:07.761Z,4.70
2023-09-03T21:47:34.800Z,3.50
2023-09-03T21:50:01.481Z,4.50
2023-09-03T21:52:28.521Z,2.90
2023-09-03T21:54:55.003Z,4.60
2023-09-03T21:57:21.603Z,4.30
2023-09-03T21:59:48.103Z,4.50
2023-09-03T22:02:14.548Z,3.90
2023-09-03T22:04:41.049Z,6.30
2023-09-03T22:07:07.585Z,2.90
2023-09-03T22:09:35.034Z,3.70
2023-09-03T22:12:01.831Z,4.70
2023-09-03T22:14:30.113Z,3.10
2023-09-03T22:16:56.687Z,6.00
2023-09-03T22:19:26.642Z,3.90
2023-09-03T22:21:55.848Z,3.80
2023-09-03T22:24:22.422Z,9.20
2023-09-03T22:26:48.964Z,4.70
2023-09-03T22:29:15.538Z,3.50
2023-09-03T22:31:42.219Z,2.70
2023-09-03T22:34:08.781Z,7.90
2023-09-03T22:36:35.258Z,3.20
2023-09-03T22:39:02.414Z,2.40
2023-09-03T22:41:29.156Z,4.00
2023-09-03T22:43:55.761Z,2.80
2023-09-03T22:46:23.001Z,2.60
2023-09-03T22:48:49.431Z,7.70
2023-09-03T22:51:18.665Z,4.60
2023-09-03T22:53:45.101Z,2.80
2023-09-03T22:56:11.614Z,3.20
2023-09-03T22:58:39.371Z,2.40
2023-09-03T23:01:06.138Z,3.10
2023-09-03T23:03:32.746Z,2.90
2023-09-03T23:05:59.342Z,4.10
2023-09-03T23:08:25.990Z,3.50
2023-09-03T23:10:52.513Z,2.80
2023-09-03T23:13:19.131Z,3.50
2023-09-03T23:15:45.779Z,3.90
2023-09-03T23:18:12.427Z,3.20
2023-09-03T23:20:39.406Z,2.80
2023-09-03T23:23:05.977Z,3.50
2023-09-03T23:25:32.513Z,3.20
2023-09-03T23:27:59.017Z,2.90
2023-09-03T23:30:26.262Z,3.50
2023-09-03T23:32:52.834Z,4.30
2023-09-03T23:35:19.563Z,3.10
2023-09-03T23:37:46.513Z,3.00
2023-09-03T23:40:13.108Z,4.10
2023-09-03T23:42:39.681Z,2.80
2023-09-03T23:45:06.734Z,4.70
2023-09-03T23:47:33.383Z,4.30
2023-09-03T23:49:59.937Z,3.10
2023-09-03T23:52:26.523Z,3.40
2023-09-03T23:54:53.104Z,3.20
2023-09-03T23:57:19.591Z,3.20
2023-09-03T23:59:46.229Z,3.00
